Time;durP1;ratioP1;P1;durP2;ratioP2;P2;SDS_P1;SDS_P2;PMS_P1;PMS_P2;Temp;Humidity;BMP_temperature;BMP_pressure;BME280_temperature;BME280_humidity;BME280_pressure;Samples;Min_cycle;Max_cycle;Signal;HPM_P1;HPM_P2
2023/07/26 00:02:10;;;;;;;0.40;0.40;;;;;;;;;;5107112;27;42073;-62
2023/07/26 00:04:38;;;;;;;0.50;0.30;;;;;;;;;;5105156;27;41908;-62
2023/07/26 00:07:06;;;;;;;1.70;0.45;;;;;;;;;;5106905;27;42064;-63
2023/07/26 00:09:35;;;;;;;0.70;0.50;;;;;;;;;;5105975;27;41363;-62
2023/07/26 00:12:04;;;;;;;1.05;0.40;;;;;;;;;;5106576;27;41814;-62
2023/07/26 00:14:33;;;;;;;1.67;0.30;;;;;;;;;;5106249;27;41670;-63
2023/07/26 00:17:01;;;;;;;0.75;0.40;;;;;;;;;;5100433;27;41163;-62
2023/07/26 00:19:28;;;;;;;0.30;0.30;;;;;;;;;;5097415;27;40968;-62
2023/07/26 00:21:56;;;;;;;0.38;0.25;;;;;;;;;;5086787;28;42462;-62
2023/07/26 00:24:24;;;;;;;0.60;0.30;;;;;;;;;;5088704;28;42422;-62
2023/07/26 00:26:54;;;;;;;1.13;0.35;;;;;;;;;;5092236;28;43233;-62
2023/07/26 00:29:22;;;;;;;0.80;0.43;;;;;;;;;;5110107;28;41652;-62
2023/07/26 00:31:49;;;;;;;1.33;0.47;;;;;;;;;;5108559;28;41760;-62
2023/07/26 00:34:17;;;;;;;0.30;0.30;;;;;;;;;;5125432;27;41046;-62
2023/07/26 00:36:45;;;;;;;0.30;0.30;;;;;;;;;;5110059;28;42336;-63
2023/07/26 00:39:14;;;;;;;0.45;0.40;;;;;;;;;;5109390;28;42692;-62
2023/07/26 00:41:42;;;;;;;0.30;0.30;;;;;;;;;;5109703;28;42126;-62
2023/07/26 00:44:11;;;;;;;0.70;0.30;;;;;;;;;;5110000;28;41487;-62
2023/07/26 00:46:39;;;;;;;0.57;0.32;;;;;;;;;;5108782;27;42693;-62
2023/07/26 00:49:08;;;;;;;0.40;0.30;;;;;;;;;;5109975;27;42288;-62
2023/07/26 00:51:38;;;;;;;0.38;0.35;;;;;;;;;;5107715;28;41100;-62
2023/07/26 00:54:08;;;;;;;0.85;0.30;;;;;;;;;;5107679;28;41882;-63
2023/07/26 00:56:36;;;;;;;0.40;0.30;;;;;;;;;;5108929;28;41489;-62
2023/07/26 00:59:04;;;;;;;0.80;0.38;;;;;;;;;;5125322;27;41531;-62
2023/07/26 01:01:35;;;;;;;1.27;0.40;;;;;;;;;;5106516;28;40591;-62
2023/07/26 01:04:03;;;;;;;0.40;0.40;;;;;;;;;;5109810;28;41193;-62
2023/07/26 01:06:34;;;;;;;1.25;0.28;;;;;;;;;;5107919;28;41596;-62
2023/07/26 01:09:03;;;;;;;0.45;0.30;;;;;;;;;;5107533;28;42019;-62
2023/07/26 01:11:33;;;;;;;0.85;0.35;;;;;;;;;;5108954;28;42714;-62
2023/07/26 01:14:02;;;;;;;0.25;0.25;;;;;;;;;;5104237;28;42198;-62
2023/07/26 01:16:30;;;;;;;0.28;0.28;;;;;;;;;;5097118;28;41178;-62
2023/07/26 01:18:59;;;;;;;0.30;0.30;;;;;;;;;;5091167;28;41861;-62
2023/07/26 01:21:31;;;;;;;0.43;0.32;;;;;;;;;;5090634;28;43733;-63
2023/07/26 01:24:00;;;;;;;0.68;0.30;;;;;;;;;;5094093;28;40683;-62
2023/07/26 01:26:28;;;;;;;0.40;0.32;;;;;;;;;;5098773;27;41197;-62
2023/07/26 01:28:56;;;;;;;0.30;0.30;;;;;;;;;;5098833;28;42099;-62
2023/07/26 01:31:24;;;;;;;0.65;0.40;;;;;;;;;;5092910;28;41068;-62
2023/07/26 01:33:52;;;;;;;0.30;0.30;;;;;;;;;;5103523;27;42696;-62
2023/07/26 01:36:23;;;;;;;0.95;0.30;;;;;;;;;;5089559;28;42140;-62
2023/07/26 01:38:52;;;;;;;0.32;0.30;;;;;;;;;;5107710;28;41119;-62
2023/07/26 01:41:20;;;;;;;0.32;0.28;;;;;;;;;;5108717;28;42150;-62
2023/07/26 01:43:48;;;;;;;0.35;0.35;;;;;;;;;;5108128;28;42326;-62
2023/07/26 01:46:16;;;;;;;0.68;0.30;;;;;;;;;;5108718;28;41983;-62
2023/07/26 01:48:44;;;;;;;0.50;0.30;;;;;;;;;;5108246;28;41994;-62
2023/07/26 01:51:13;;;;;;;0.35;0.35;;;;;;;;;;5109189;27;41455;-62
2023/07/26 01:53:43;;;;;;;0.40;0.25;;;;;;;;;;5124095;27;40840;-62
2023/07/26 01:56:12;;;;;;;0.30;0.30;;;;;;;;;;5108202;28;42087;-62
2023/07/26 01:58:40;;;;;;;0.55;0.32;;;;;;;;;;5123203;27;41242;-62
2023/07/26 02:01:08;;;;;;;1.08;0.30;;;;;;;;;;5107436;28;41573;-62
2023/07/26 02:03:36;;;;;;;0.30;0.20;;;;;;;;;;5105889;28;39858;-62
2023/07/26 02:06:04;;;;;;;0.40;0.30;;;;;;;;;;5107098;28;40207;-62
2023/07/26 02:08:32;;;;;;;0.63;0.38;;;;;;;;;;5123696;27;41608;-62
2023/07/26 02:11:00;;;;;;;0.30;0.30;;;;;;;;;;5106227;28;40963;-62
2023/07/26 02:13:29;;;;;;;0.85;0.30;;;;;;;;;;5106725;28;41467;-62
2023/07/26 02:15:57;;;;;;;0.95;0.30;;;;;;;;;;5108503;28;41917;-62
2023/07/26 02:18:25;;;;;;;0.63;0.30;;;;;;;;;;5107456;28;41019;-62
2023/07/26 02:20:53;;;;;;;0.30;0.30;;;;;;;;;;5108709;28;43419;-62
2023/07/26 02:23:21;;;;;;;0.65;0.40;;;;;;;;;;5107798;28;41072;-61
2023/07/26 02:25:50;;;;;;;1.10;0.50;;;;;;;;;;5107357;27;42329;-62
2023/07/26 02:28:20;;;;;;;0.40;0.35;;;;;;;;;;5121455;27;42539;-62
2023/07/26 02:30:49;;;;;;;0.68;0.30;;;;;;;;;;5105449;28;41582;-62
2023/07/26 02:33:17;;;;;;;0.40;0.40;;;;;;;;;;5106269;28;40341;-62
2023/07/26 02:35:46;;;;;;;0.20;0.20;;;;;;;;;;5106533;28;41947;-62
2023/07/26 02:38:14;;;;;;;0.30;0.25;;;;;;;;;;5107688;28;41460;-62
2023/07/26 02:40:42;;;;;;;0.75;0.30;;;;;;;;;;5108091;28;42243;-62
2023/07/26 02:43:10;;;;;;;0.40;0.30;;;;;;;;;;5108357;28;41422;-62
2023/07/26 02:45:40;;;;;;;0.25;0.25;;;;;;;;;;5104471;27;42061;-62
2023/07/26 02:48:09;;;;;;;0.75;0.32;;;;;;;;;;5106422;28;43506;-62
2023/07/26 02:50:37;;;;;;;0.28;0.28;;;;;;;;;;5105660;28;41858;-62
2023/07/26 02:53:05;;;;;;;0.30;0.30;;;;;;;;;;5104986;28;42429;-62
2023/07/26 02:55:33;;;;;;;0.85;0.30;;;;;;;;;;5105015;27;42112;-62
2023/07/26 02:58:01;;;;;;;0.20;0.20;;;;;;;;;;5106089;28;41152;-62
2023/07/26 03:00:29;;;;;;;0.40;0.20;;;;;;;;;;5104989;28;41844;-63
2023/07/26 03:02:57;;;;;;;0.38;0.30;;;;;;;;;;5107294;28;41365;-62
2023/07/26 03:05:27;;;;;;;0.30;0.30;;;;;;;;;;5121320;27;40043;-62
2023/07/26 03:07:55;;;;;;;0.95;0.30;;;;;;;;;;5106104;28;41678;-62
2023/07/26 03:10:24;;;;;;;1.45;0.30;;;;;;;;;;5105707;28;41632;-62
2023/07/26 03:12:52;;;;;;;0.63;0.40;;;;;;;;;;5106767;28;42251;-62
2023/07/26 03:15:20;;;;;;;0.20;0.20;;;;;;;;;;5107481;28;41748;-63
2023/07/26 03:17:48;;;;;;;0.60;0.40;;;;;;;;;;5106865;28;42228;-62
2023/07/26 03:20:16;;;;;;;0.20;0.20;;;;;;;;;;5107397;28;41881;-62
2023/07/26 03:22:45;;;;;;;0.30;0.30;;;;;;;;;;5123116;27;39993;-62
2023/07/26 03:25:13;;;;;;;0.30;0.30;;;;;;;;;;5107786;28;41615;-62
2023/07/26 03:27:42;;;;;;;1.65;0.20;;;;;;;;;;5106250;27;43044;-62
2023/07/26 03:30:11;;;;;;;0.30;0.30;;;;;;;;;;5107781;27;40921;-62
2023/07/26 03:32:39;;;;;;;0.30;0.30;;;;;;;;;;5106622;28;42666;-62
2023/07/26 03:35:07;;;;;;;0.20;0.20;;;;;;;;;;5107044;28;42145;-62
2023/07/26 03:37:35;;;;;;;0.93;0.30;;;;;;;;;;5105089;28;39792;-62
2023/07/26 03:40:05;;;;;;;0.30;0.30;;;;;;;;;;5105706;28;40099;-61
2023/07/26 03:42:33;;;;;;;1.05;0.40;;;;;;;;;;5106429;28;42175;-61
2023/07/26 03:45:02;;;;;;;0.20;0.20;;;;;;;;;;5107054;27;42295;-62
2023/07/26 03:47:30;;;;;;;0.40;0.30;;;;;;;;;;5104953;28;40602;-61
2023/07/26 03:49:59;;;;;;;0.30;0.30;;;;;;;;;;5106620;28;41296;-61
2023/07/26 03:52:27;;;;;;;0.93;0.40;;;;;;;;;;5106780;28;41759;-62
2023/07/26 03:54:55;;;;;;;2.47;0.35;;;;;;;;;;5101067;28;42061;-61
2023/07/26 03:57:24;;;;;;;0.60;0.30;;;;;;;;;;5097819;27;41459;-61
2023/07/26 03:59:52;;;;;;;0.25;0.22;;;;;;;;;;5110929;28;41872;-61
2023/07/26 04:02:21;;;;;;;0.30;0.30;;;;;;;;;;5108224;28;40883;-61
2023/07/26 04:04:49;;;;;;;0.30;0.25;;;;;;;;;;5110621;28;41488;-61
2023/07/26 04:07:17;;;;;;;0.30;0.30;;;;;;;;;;5110399;28;42369;-61
2023/07/26 04:09:45;;;;;;;0.73;0.40;;;;;;;;;;5109187;27;41495;-61
2023/07/26 04:12:13;;;;;;;0.30;0.30;;;;;;;;;;5110686;27;41888;-62
2023/07/26 04:14:42;;;;;;;0.20;0.20;;;;;;;;;;5110132;27;41642;-61
2023/07/26 04:17:10;;;;;;;0.30;0.30;;;;;;;;;;5109280;27;41474;-62
2023/07/26 04:19:38;;;;;;;0.25;0.25;;;;;;;;;;5109981;27;43277;-62
2023/07/26 04:22:06;;;;;;;0.20;0.20;;;;;;;;;;5110345;27;42297;-62
2023/07/26 04:24:34;;;;;;;0.30;0.30;;;;;;;;;;5109281;27;41867;-62
2023/07/26 04:27:02;;;;;;;0.32;0.30;;;;;;;;;;5109898;27;42385;-62
2023/07/26 04:29:30;;;;;;;0.40;0.20;;;;;;;;;;5109546;27;41254;-62
2023/07/26 04:31:59;;;;;;;0.50;0.30;;;;;;;;;;5109545;27;42690;-62
2023/07/26 04:34:27;;;;;;;0.30;0.30;;;;;;;;;;5109104;27;42236;-62
2023/07/26 04:36:55;;;;;;;0.20;0.20;;;;;;;;;;5089751;28;40782;-62
2023/07/26 04:39:23;;;;;;;1.85;0.30;;;;;;;;;;5088577;28;41939;-62
2023/07/26 04:41:51;;;;;;;0.32;0.32;;;;;;;;;;5089489;28;42925;-62
2023/07/26 04:44:19;;;;;;;0.20;0.20;;;;;;;;;;5088590;28;40805;-62
2023/07/26 04:46:48;;;;;;;0.63;0.38;;;;;;;;;;5108448;28;42191;-62
2023/07/26 04:49:17;;;;;;;0.28;0.28;;;;;;;;;;5110102;27;42324;-62
2023/07/26 04:51:45;;;;;;;0.40;0.40;;;;;;;;;;5108896;27;41065;-62
2023/07/26 04:54:13;;;;;;;0.50;0.20;;;;;;;;;;5109803;27;42046;-62
2023/07/26 04:56:41;;;;;;;0.30;0.30;;;;;;;;;;5108559;28;39956;-62
2023/07/26 04:59:09;;;;;;;0.20;0.20;;;;;;;;;;5109127;27;41504;-62
2023/07/26 05:01:37;;;;;;;0.20;0.20;;;;;;;;;;5109213;27;42063;-62
2023/07/26 05:04:05;;;;;;;0.30;0.30;;;;;;;;;;5109292;27;41130;-62
2023/07/26 05:06:34;;;;;;;0.30;0.30;;;;;;;;;;5107863;27;41788;-62
2023/07/26 05:09:04;;;;;;;0.20;0.20;;;;;;;;;;5109084;27;41837;-62
2023/07/26 05:11:32;;;;;;;0.30;0.30;;;;;;;;;;5108254;27;43358;-62
2023/07/26 05:14:01;;;;;;;0.50;0.30;;;;;;;;;;5108550;27;41812;-62
2023/07/26 05:16:29;;;;;;;0.30;0.30;;;;;;;;;;5108233;27;40919;-63
2023/07/26 05:18:59;;;;;;;0.30;0.30;;;;;;;;;;5109382;27;41941;-62
2023/07/26 05:21:27;;;;;;;0.43;0.30;;;;;;;;;;5108240;27;41537;-62
2023/07/26 05:23:56;;;;;;;0.57;0.40;;;;;;;;;;5109715;27;42008;-62
2023/07/26 05:26:24;;;;;;;0.90;0.30;;;;;;;;;;5108495;27;41499;-62
2023/07/26 05:28:52;;;;;;;0.25;0.20;;;;;;;;;;5108666;27;43141;-62
2023/07/26 05:31:20;;;;;;;0.40;0.40;;;;;;;;;;5107932;27;41285;-62
2023/07/26 05:33:48;;;;;;;0.20;0.20;;;;;;;;;;5107746;27;41930;-62
2023/07/26 05:36:16;;;;;;;0.40;0.40;;;;;;;;;;5108560;27;41276;-64
2023/07/26 05:38:44;;;;;;;0.40;0.30;;;;;;;;;;5108603;27;42609;-62
2023/07/26 05:41:13;;;;;;;0.30;0.30;;;;;;;;;;5108266;27;42048;-62
2023/07/26 05:43:41;;;;;;;0.38;0.35;;;;;;;;;;5108283;27;42407;-62
2023/07/26 05:46:09;;;;;;;0.30;0.30;;;;;;;;;;5108690;27;42619;-62
2023/07/26 05:48:37;;;;;;;1.90;0.38;;;;;;;;;;5107385;27;41478;-62
2023/07/26 05:51:07;;;;;;;1.52;0.30;;;;;;;;;;5108703;27;41543;-62
2023/07/26 05:53:36;;;;;;;0.45;0.30;;;;;;;;;;5108093;27;41540;-62
2023/07/26 05:56:05;;;;;;;0.30;0.30;;;;;;;;;;5107824;27;42377;-62
2023/07/26 05:58:34;;;;;;;0.30;0.30;;;;;;;;;;5108501;27;41690;-62
2023/07/26 06:01:02;;;;;;;0.38;0.30;;;;;;;;;;5109155;27;41661;-62
2023/07/26 06:03:30;;;;;;;0.32;0.32;;;;;;;;;;5107715;27;40737;-62
2023/07/26 06:05:58;;;;;;;1.23;0.30;;;;;;;;;;5108114;27;41651;-62
2023/07/26 06:08:26;;;;;;;0.93;0.40;;;;;;;;;;5108328;27;41757;-62
2023/07/26 06:10:54;;;;;;;0.40;0.30;;;;;;;;;;5107551;27;41336;-62
2023/07/26 06:13:22;;;;;;;0.50;0.40;;;;;;;;;;5107674;27;42551;-62
2023/07/26 06:15:51;;;;;;;0.40;0.30;;;;;;;;;;5107529;27;32528;-62
2023/07/26 06:18:19;;;;;;;0.30;0.30;;;;;;;;;;5108639;27;41511;-62
2023/07/26 06:20:47;;;;;;;0.30;0.30;;;;;;;;;;5107298;27;42274;-62
2023/07/26 06:23:15;;;;;;;0.40;0.40;;;;;;;;;;5107786;27;41456;-62
2023/07/26 06:25:43;;;;;;;0.30;0.30;;;;;;;;;;5107876;27;41671;-62
2023/07/26 06:28:11;;;;;;;0.20;0.20;;;;;;;;;;5108273;27;42737;-61
2023/07/26 06:30:39;;;;;;;0.30;0.30;;;;;;;;;;5106275;27;42279;-62
2023/07/26 06:33:09;;;;;;;0.73;0.40;;;;;;;;;;5108338;27;41786;-62
2023/07/26 06:35:37;;;;;;;0.40;0.40;;;;;;;;;;5107112;27;43226;-62
2023/07/26 06:38:05;;;;;;;0.47;0.40;;;;;;;;;;5105281;27;41079;-62
2023/07/26 06:40:33;;;;;;;0.43;0.38;;;;;;;;;;5095942;28;43931;-62
2023/07/26 06:43:01;;;;;;;0.40;0.30;;;;;;;;;;5096951;28;41295;-62
2023/07/26 06:45:29;;;;;;;0.95;0.30;;;;;;;;;;5088644;27;41710;-62
2023/07/26 06:47:57;;;;;;;0.20;0.20;;;;;;;;;;5088592;28;43893;-62
2023/07/26 06:50:29;;;;;;;0.50;0.50;;;;;;;;;;5097462;28;41427;-63
2023/07/26 06:52:57;;;;;;;0.30;0.30;;;;;;;;;;5097732;28;41241;-62
2023/07/26 06:55:25;;;;;;;0.20;0.20;;;;;;;;;;5095691;27;41761;-62
2023/07/26 06:57:52;;;;;;;0.40;0.30;;;;;;;;;;5108356;27;42391;-62
2023/07/26 07:00:20;;;;;;;0.30;0.30;;;;;;;;;;5107801;27;41507;-62
2023/07/26 07:02:48;;;;;;;0.30;0.30;;;;;;;;;;5107585;27;41372;-62
2023/07/26 07:05:16;;;;;;;0.30;0.30;;;;;;;;;;5106660;27;41751;-62
2023/07/26 07:07:46;;;;;;;2.03;0.40;;;;;;;;;;5107964;27;42166;-62
2023/07/26 07:10:16;;;;;;;0.50;0.50;;;;;;;;;;5108006;27;42240;-62
2023/07/26 07:12:44;;;;;;;0.30;0.30;;;;;;;;;;5106525;27;42011;-62
2023/07/26 07:15:12;;;;;;;0.30;0.30;;;;;;;;;;5103433;27;42031;-62
2023/07/26 07:17:40;;;;;;;0.47;0.38;;;;;;;;;;5093657;27;41984;-62
2023/07/26 07:20:08;;;;;;;0.35;0.30;;;;;;;;;;5086866;28;42185;-62
2023/07/26 07:22:36;;;;;;;0.20;0.20;;;;;;;;;;5086304;28;40944;-62
2023/07/26 07:25:06;;;;;;;0.73;0.40;;;;;;;;;;5096959;28;41785;-61
2023/07/26 07:27:34;;;;;;;0.32;0.30;;;;;;;;;;5105895;27;43007;-62
2023/07/26 07:30:02;;;;;;;0.40;0.30;;;;;;;;;;5107403;27;41173;-62
2023/07/26 07:32:30;;;;;;;0.20;0.20;;;;;;;;;;5105597;27;41600;-62
2023/07/26 07:34:58;;;;;;;0.50;0.40;;;;;;;;;;5106462;27;42003;-62
2023/07/26 07:37:27;;;;;;;0.40;0.40;;;;;;;;;;5106892;27;41168;-62
2023/07/26 07:39:55;;;;;;;0.73;0.30;;;;;;;;;;5107580;27;41630;-62
2023/07/26 07:42:24;;;;;;;0.30;0.30;;;;;;;;;;5106803;27;41843;-62
2023/07/26 07:44:52;;;;;;;0.40;0.20;;;;;;;;;;5107154;27;42702;-62
2023/07/26 07:47:20;;;;;;;0.30;0.30;;;;;;;;;;5105817;27;42188;-62
2023/07/26 07:49:48;;;;;;;0.47;0.30;;;;;;;;;;5105164;27;40940;-62
2023/07/26 07:52:16;;;;;;;0.20;0.20;;;;;;;;;;5106062;27;40758;-62
2023/07/26 07:54:44;;;;;;;0.40;0.30;;;;;;;;;;5107435;27;41777;-62
2023/07/26 07:57:12;;;;;;;0.63;0.40;;;;;;;;;;5106914;27;41329;-62
2023/07/26 07:59:41;;;;;;;0.35;0.32;;;;;;;;;;5106211;27;42320;-62
2023/07/26 08:02:09;;;;;;;0.30;0.30;;;;;;;;;;5105872;27;42122;-62
2023/07/26 08:04:38;;;;;;;0.50;0.40;;;;;;;;;;5106330;27;42021;-62
2023/07/26 08:07:06;;;;;;;0.30;0.30;;;;;;;;;;5106757;27;41982;-62
2023/07/26 08:09:34;;;;;;;0.40;0.40;;;;;;;;;;5104913;27;41138;-62
2023/07/26 08:12:03;;;;;;;0.20;0.20;;;;;;;;;;5106594;27;41823;-63
2023/07/26 08:14:31;;;;;;;0.60;0.35;;;;;;;;;;5106046;27;42822;-62
2023/07/26 08:17:00;;;;;;;0.38;0.28;;;;;;;;;;5105824;27;41389;-62
2023/07/26 08:19:28;;;;;;;0.30;0.30;;;;;;;;;;5105999;27;41700;-62
2023/07/26 08:21:56;;;;;;;0.40;0.40;;;;;;;;;;5106821;27;42673;-62
2023/07/26 08:24:25;;;;;;;0.20;0.20;;;;;;;;;;5105570;27;41181;-62
2023/07/26 08:26:53;;;;;;;5.10;3.00;;;;;;;;;;5105961;27;42085;-63
2023/07/26 08:29:21;;;;;;;5.80;2.78;;;;;;;;;;5103757;27;42139;-62
2023/07/26 08:31:49;;;;;;;6.18;2.95;;;;;;;;;;5102003;27;41782;-62
2023/07/26 08:34:19;;;;;;;3.78;3.42;;;;;;;;;;5096905;27;42168;-65
2023/07/26 08:36:47;;;;;;;6.50;3.78;;;;;;;;;;5088270;28;41106;-64
2023/07/26 08:39:15;;;;;;;9.40;3.97;;;;;;;;;;5106097;27;42691;-64
2023/07/26 08:41:49;;;;;;;7.18;3.85;;;;;;;;;;5106010;27;42837;-65
2023/07/26 08:44:17;;;;;;;4.63;3.88;;;;;;;;;;5091822;27;41936;-64
2023/07/26 08:46:45;;;;;;;5.38;3.58;;;;;;;;;;5090581;27;41800;-62
2023/07/26 08:49:13;;;;;;;5.45;3.58;;;;;;;;;;5088352;28;41306;-63
2023/07/26 08:51:43;;;;;;;4.78;2.65;;;;;;;;;;5088189;28;42095;-62
2023/07/26 08:54:12;;;;;;;13.90;2.95;;;;;;;;;;5089580;28;42022;-63
2023/07/26 08:56:40;;;;;;;4.13;2.45;;;;;;;;;;5105382;28;41224;-62
2023/07/26 08:59:08;;;;;;;5.18;2.45;;;;;;;;;;5108515;27;42050;-63
2023/07/26 09:01:35;;;;;;;2.63;2.15;;;;;;;;;;5108607;27;42217;-63
2023/07/26 09:04:23;;;;;;;3.20;2.00;;;;;;;;;;5109255;27;40953;-64
2023/07/26 09:06:53;;;;;;;5.45;2.25;;;;;;;;;;5108255;27;41530;-67
2023/07/26 09:09:21;;;;;;;3.90;2.13;;;;;;;;;;5109376;27;42199;-64
2023/07/26 09:11:49;;;;;;;2.88;2.35;;;;;;;;;;5107665;27;40654;-60
2023/07/26 09:14:17;;;;;;;5.50;2.33;;;;;;;;;;5104174;27;41713;-60
2023/07/26 09:16:47;;;;;;;4.63;2.03;;;;;;;;;;5107376;27;40921;-62
2023/07/26 09:19:15;;;;;;;4.68;2.58;;;;;;;;;;5098545;27;41068;-67
2023/07/26 09:21:43;;;;;;;5.88;1.88;;;;;;;;;;5108062;28;42832;-64
2023/07/26 09:24:12;;;;;;;2.80;1.52;;;;;;;;;;5109162;27;42061;-64
2023/07/26 09:26:41;;;;;;;7.43;1.55;;;;;;;;;;5105246;27;42676;-67
2023/07/26 09:29:10;;;;;;;2.88;1.30;;;;;;;;;;5108819;27;41928;-63
2023/07/26 09:31:38;;;;;;;1.65;1.35;;;;;;;;;;5105355;27;41328;-64
2023/07/26 09:34:07;;;;;;;4.10;1.50;;;;;;;;;;5108464;27;42656;-63
2023/07/26 09:36:42;;;;;;;3.28;1.08;;;;;;;;;;5105921;27;40909;-64
2023/07/26 09:39:10;;;;;;;2.08;1.10;;;;;;;;;;5094777;28;42403;-62
2023/07/26 09:41:39;;;;;;;3.53;1.30;;;;;;;;;;5100715;27;41516;-62
2023/07/26 09:44:07;;;;;;;1.83;1.40;;;;;;;;;;5107750;28;42082;-63
2023/07/26 09:46:48;;;;;;;2.17;1.25;;;;;;;;;;5108468;27;41261;-65
2023/07/26 09:49:16;;;;;;;2.33;1.33;;;;;;;;;;5107700;27;41635;-64
2023/07/26 09:51:54;;;;;;;5.55;1.20;;;;;;;;;;5109193;27;40743;-65
2023/07/26 09:54:25;;;;;;;3.65;1.30;;;;;;;;;;5106235;27;41678;-64
2023/07/26 09:57:00;;;;;;;1.48;1.20;;;;;;;;;;5105658;27;41388;-64
2023/07/26 09:59:28;;;;;;;2.35;1.42;;;;;;;;;;5097479;28;41355;-64
2023/07/26 10:01:56;;;;;;;2.25;1.67;;;;;;;;;;5107910;27;41914;-63
2023/07/26 10:04:26;;;;;;;1.98;1.48;;;;;;;;;;5107706;27;41359;-64
2023/07/26 10:06:56;;;;;;;2.47;1.25;;;;;;;;;;5107742;27;40829;-63
2023/07/26 10:09:25;;;;;;;1.83;1.23;;;;;;;;;;5106612;27;41995;-63
2023/07/26 10:11:53;;;;;;;1.63;1.20;;;;;;;;;;5107329;27;42405;-63
2023/07/26 10:14:22;;;;;;;2.08;1.60;;;;;;;;;;5108238;27;41303;-63
2023/07/26 10:16:50;;;;;;;3.50;1.73;;;;;;;;;;5106037;27;42014;-65
2023/07/26 10:19:18;;;;;;;3.38;1.45;;;;;;;;;;5107469;27;41645;-64
2023/07/26 10:21:47;;;;;;;3.00;1.60;;;;;;;;;;5106075;27;41949;-65
2023/07/26 10:24:15;;;;;;;2.35;1.38;;;;;;;;;;5107701;27;41560;-64
2023/07/26 10:26:46;;;;;;;3.08;1.90;;;;;;;;;;5107572;27;41151;-63
2023/07/26 10:29:14;;;;;;;2.63;1.70;;;;;;;;;;5105118;28;41972;-65
2023/07/26 10:31:44;;;;;;;4.70;1.75;;;;;;;;;;5107158;27;40916;-64
2023/07/26 10:34:19;;;;;;;3.92;1.77;;;;;;;;;;5106087;27;42479;-64
2023/07/26 10:36:47;;;;;;;4.60;1.67;;;;;;;;;;5106992;27;42039;-64
2023/07/26 10:39:15;;;;;;;2.90;1.83;;;;;;;;;;5106391;27;42660;-63
2023/07/26 10:41:47;;;;;;;4.25;1.95;;;;;;;;;;5107181;27;43171;-63
2023/07/26 10:44:15;;;;;;;2.15;1.92;;;;;;;;;;5094258;28;42104;-63
2023/07/26 10:46:51;;;;;;;6.05;1.90;;;;;;;;;;5110080;27;42275;-63
2023/07/26 10:49:20;;;;;;;3.33;1.95;;;;;;;;;;5107284;27;42151;-64
2023/07/26 10:51:52;;;;;;;6.32;2.10;;;;;;;;;;5115735;27;41731;-64
2023/07/26 10:54:32;;;;;;;2.58;1.60;;;;;;;;;;5127855;27;42372;-63
2023/07/26 10:57:16;;;;;;;4.07;2.47;;;;;;;;;;5102788;27;41818;-64
2023/07/26 10:59:51;;;;;;;2.83;2.00;;;;;;;;;;5093841;27;40834;-61
2023/07/26 11:02:33;;;;;;;4.85;2.08;;;;;;;;;;5104173;27;41967;-63
2023/07/26 11:05:03;;;;;;;5.15;2.10;;;;;;;;;;5087295;28;41136;-63
2023/07/26 11:07:53;;;;;;;2.30;1.67;;;;;;;;;;5099827;27;42022;-63
2023/07/26 11:10:21;;;;;;;2.45;1.55;;;;;;;;;;5106922;27;42090;-63
2023/07/26 11:12:50;;;;;;;1.90;1.50;;;;;;;;;;5105244;27;41162;-63
2023/07/26 11:15:28;;;;;;;3.63;1.42;;;;;;;;;;5107763;27;41697;-63
2023/07/26 11:18:16;;;;;;;2.83;1.30;;;;;;;;;;5095289;28;41972;-68
2023/07/26 11:20:46;;;;;;;2.88;1.50;;;;;;;;;;5106801;27;41851;-68
2023/07/26 11:23:17;;;;;;;4.75;1.20;;;;;;;;;;5123497;27;42773;-69
2023/07/26 11:25:45;;;;;;;2.60;1.30;;;;;;;;;;5106109;28;41310;-69
2023/07/26 11:28:13;;;;;;;2.08;1.15;;;;;;;;;;5127136;27;41847;-68
2023/07/26 11:30:42;;;;;;;1.98;1.27;;;;;;;;;;5105052;27;41711;-70
2023/07/26 11:33:11;;;;;;;4.22;1.30;;;;;;;;;;5106078;27;41854;-68
2023/07/26 11:35:39;;;;;;;2.30;1.38;;;;;;;;;;5105041;27;41538;-68
2023/07/26 11:38:08;;;;;;;1.60;1.08;;;;;;;;;;5106492;27;43059;-69
2023/07/26 11:40:39;;;;;;;3.63;1.20;;;;;;;;;;5104060;27;41476;-67
2023/07/26 11:43:07;;;;;;;3.33;1.40;;;;;;;;;;5106491;27;41282;-69
2023/07/26 11:45:36;;;;;;;1.92;1.10;;;;;;;;;;5088528;28;43209;-68
2023/07/26 11:48:04;;;;;;;2.80;1.48;;;;;;;;;;5097134;27;41409;-68
2023/07/26 11:50:33;;;;;;;2.08;1.10;;;;;;;;;;5087103;28;20225;-69
2023/07/26 11:53:04;;;;;;;3.03;1.30;;;;;;;;;;5106756;27;42330;-68
2023/07/26 11:55:34;;;;;;;2.22;1.10;;;;;;;;;;5105834;28;41119;-69
2023/07/26 11:58:03;;;;;;;2.47;1.33;;;;;;;;;;5109577;27;42410;-68
2023/07/26 12:00:31;;;;;;;1.80;1.40;;;;;;;;;;5105354;28;41208;-68
2023/07/26 12:03:00;;;;;;;2.60;1.30;;;;;;;;;;5105206;27;42801;-68
2023/07/26 12:05:28;;;;;;;2.70;1.67;;;;;;;;;;5086417;28;42056;-65
2023/07/26 12:07:57;;;;;;;2.00;1.60;;;;;;;;;;5100987;27;42940;-66
2023/07/26 12:10:28;;;;;;;4.80;2.08;;;;;;;;;;5105611;27;42052;-66
2023/07/26 12:12:58;;;;;;;3.95;1.70;;;;;;;;;;5107338;27;41063;-68
2023/07/26 12:15:26;;;;;;;3.60;1.77;;;;;;;;;;5104055;27;41109;-65
2023/07/26 12:17:55;;;;;;;3.50;1.80;;;;;;;;;;5106961;27;41723;-66
2023/07/26 12:20:23;;;;;;;3.05;1.90;;;;;;;;;;5108280;27;42316;-66
2023/07/26 12:23:06;;;;;;;6.13;2.50;;;;;;;;;;5109539;27;41143;-67
2023/07/26 12:25:38;;;;;;;3.85;2.55;;;;;;;;;;5107111;27;42097;-66
2023/07/26 12:28:07;;;;;;;3.50;2.22;;;;;;;;;;5110351;27;41246;-67
2023/07/26 12:30:35;;;;;;;4.65;2.22;;;;;;;;;;5108412;27;42736;-65
2023/07/26 12:33:10;;;;;;;4.43;2.65;;;;;;;;;;5108920;27;41387;-65
2023/07/26 12:35:39;;;;;;;5.03;2.70;;;;;;;;;;5108984;27;42279;-67
2023/07/26 12:38:10;;;;;;;5.13;2.80;;;;;;;;;;5108783;27;43166;-65
2023/07/26 12:40:38;;;;;;;4.07;2.50;;;;;;;;;;5109422;27;41382;-65
2023/07/26 12:43:24;;;;;;;6.50;3.28;;;;;;;;;;5108138;27;41641;-65
2023/07/26 12:45:52;;;;;;;2.58;2.15;;;;;;;;;;5110053;27;41957;-64
2023/07/26 12:48:20;;;;;;;5.90;2.92;;;;;;;;;;5108521;27;42196;-65
2023/07/26 12:50:48;;;;;;;5.60;2.60;;;;;;;;;;5108281;27;42703;-65
2023/07/26 12:53:16;;;;;;;3.50;2.33;;;;;;;;;;5109348;27;41146;-65
2023/07/26 12:55:44;;;;;;;4.45;2.35;;;;;;;;;;5108690;27;41478;-65
2023/07/26 12:58:12;;;;;;;3.90;2.63;;;;;;;;;;5109144;27;43147;-66
2023/07/26 13:00:42;;;;;;;4.00;2.22;;;;;;;;;;5108062;27;41367;-64
2023/07/26 13:03:10;;;;;;;10.90;3.33;;;;;;;;;;5105627;27;41409;-65
2023/07/26 13:05:38;;;;;;;3.22;2.33;;;;;;;;;;5106742;27;42745;-65
2023/07/26 13:08:06;;;;;;;3.05;2.22;;;;;;;;;;5104636;27;41898;-66
2023/07/26 13:10:34;;;;;;;2.72;2.00;;;;;;;;;;5094179;28;41140;-65
2023/07/26 13:13:03;;;;;;;3.58;2.53;;;;;;;;;;5109131;27;41944;-63
2023/07/26 13:15:31;;;;;;;6.10;2.70;;;;;;;;;;5109457;27;40622;-63
2023/07/26 13:18:00;;;;;;;4.00;2.53;;;;;;;;;;5107842;27;42168;-62
2023/07/26 13:20:29;;;;;;;3.78;2.58;;;;;;;;;;5102170;27;40977;-69
2023/07/26 13:22:57;;;;;;;4.53;2.78;;;;;;;;;;5096050;28;42603;-67
2023/07/26 13:25:25;;;;;;;6.80;2.00;;;;;;;;;;5104971;27;41981;-67
2023/07/26 13:27:53;;;;;;;6.82;2.38;;;;;;;;;;5109635;27;41423;-67
2023/07/26 13:30:21;;;;;;;4.75;2.40;;;;;;;;;;5106533;27;42572;-67
2023/07/26 13:32:49;;;;;;;5.00;2.13;;;;;;;;;;5107800;27;43022;-67
2023/07/26 13:35:19;;;;;;;3.50;2.20;;;;;;;;;;5107534;27;42324;-68
2023/07/26 13:37:47;;;;;;;4.05;2.22;;;;;;;;;;5108854;27;42736;-67
2023/07/26 13:40:15;;;;;;;4.07;1.90;;;;;;;;;;5104162;27;41013;-67
2023/07/26 13:42:43;;;;;;;6.68;2.50;;;;;;;;;;5107957;27;41746;-67
2023/07/26 13:45:11;;;;;;;3.08;2.10;;;;;;;;;;5104809;27;43189;-67
2023/07/26 13:47:39;;;;;;;3.60;2.05;;;;;;;;;;5105871;28;41723;-67
2023/07/26 13:50:07;;;;;;;3.92;2.42;;;;;;;;;;5107129;27;42210;-67
2023/07/26 13:52:37;;;;;;;3.25;1.95;;;;;;;;;;5104587;27;42245;-67
2023/07/26 13:55:06;;;;;;;4.82;1.73;;;;;;;;;;5105702;27;41110;-67
2023/07/26 13:57:34;;;;;;;7.90;2.42;;;;;;;;;;5106074;27;42383;-67
2023/07/26 14:00:02;;;;;;;3.47;1.90;;;;;;;;;;5108685;27;42011;-67
2023/07/26 14:02:38;;;;;;;4.05;2.10;;;;;;;;;;5108308;28;42093;-67
2023/07/26 14:05:07;;;;;;;2.58;1.80;;;;;;;;;;5108981;27;42466;-67
2023/07/26 14:07:35;;;;;;;2.45;1.88;;;;;;;;;;5107068;27;40988;-67
2023/07/26 14:10:05;;;;;;;3.80;1.70;;;;;;;;;;5109073;27;41533;-67
2023/07/26 14:12:33;;;;;;;2.67;1.70;;;;;;;;;;5108106;27;42731;-67
2023/07/26 14:15:01;;;;;;;3.05;1.88;;;;;;;;;;5107988;27;41333;-67
2023/07/26 14:17:29;;;;;;;5.55;1.80;;;;;;;;;;5107346;27;41657;-67
2023/07/26 14:19:57;;;;;;;4.07;2.08;;;;;;;;;;5109348;27;41658;-67
2023/07/26 14:22:25;;;;;;;2.95;1.70;;;;;;;;;;5107216;27;42746;-67
2023/07/26 14:24:53;;;;;;;2.72;1.50;;;;;;;;;;5108650;27;42090;-67
2023/07/26 14:27:23;;;;;;;2.88;1.83;;;;;;;;;;5108193;27;41953;-67
2023/07/26 14:29:51;;;;;;;3.03;1.60;;;;;;;;;;5107388;27;41818;-67
2023/07/26 14:32:19;;;;;;;2.70;1.73;;;;;;;;;;5107233;27;41983;-67
2023/07/26 14:34:47;;;;;;;2.03;1.70;;;;;;;;;;5107937;27;41523;-68
2023/07/26 14:37:17;;;;;;;2.47;1.77;;;;;;;;;;5107469;27;41714;-67
2023/07/26 14:39:45;;;;;;;3.92;1.90;;;;;;;;;;5107951;27;42022;-67
2023/07/26 14:42:16;;;;;;;2.03;1.60;;;;;;;;;;5106783;27;41622;-68
2023/07/26 14:44:45;;;;;;;3.00;1.70;;;;;;;;;;5107317;27;41687;-67
2023/07/26 14:47:13;;;;;;;1.70;1.42;;;;;;;;;;5107660;27;42420;-67
2023/07/26 14:49:42;;;;;;;2.17;1.98;;;;;;;;;;5107671;27;41755;-67
2023/07/26 14:52:29;;;;;;;2.33;1.70;;;;;;;;;;5107681;27;41844;-67
2023/07/26 14:54:57;;;;;;;2.00;1.38;;;;;;;;;;5108216;27;40892;-67